createdAt,value
2023-02-25T00:01:06.793Z,17.67
2023-02-25T00:06:14.005Z,15.13
2023-02-25T00:11:18.407Z,17.00
2023-02-25T00:16:23.532Z,15.70
2023-02-25T00:21:29.654Z,16.38
2023-02-25T00:26:32.862Z,17.95
2023-02-25T00:31:36.079Z,17.02
2023-02-25T00:36:41.050Z,17.30
2023-02-25T00:41:44.568Z,18.08
2023-02-25T00:46:47.758Z,15.10
2023-02-25T00:51:52.472Z,16.30
2023-02-25T00:56:55.603Z,21.00
2023-02-25T01:01:58.967Z,20.33
2023-02-25T01:07:03.892Z,16.58
2023-02-25T01:12:07.746Z,14.25
2023-02-25T01:17:10.844Z,15.32
2023-02-25T01:22:15.477Z,12.00
2023-02-25T01:27:18.698Z,19.60
2023-02-25T01:32:21.986Z,12.57
2023-02-25T01:37:26.702Z,14.98
2023-02-25T01:42:29.863Z,17.53
2023-02-25T01:47:37.509Z,16.92
2023-02-25T01:52:45.103Z,22.50
2023-02-25T01:57:49.386Z,19.73
2023-02-25T02:02:52.590Z,23.80
2023-02-25T02:07:57.367Z,14.75
2023-02-25T02:13:00.605Z,14.43
2023-02-25T02:18:05.847Z,13.50
2023-02-25T02:23:40.714Z,16.67
2023-02-25T02:29:34.073Z,13.10
2023-02-25T02:34:48.244Z,14.07
2023-02-25T02:40:05.832Z,14.90
2023-02-25T02:45:14.915Z,12.63
2023-02-25T02:50:29.004Z,14.43
2023-02-25T02:55:37.785Z,9.45
2023-02-25T03:00:44.141Z,15.52
2023-02-25T03:05:53.373Z,15.32
2023-02-25T03:10:56.591Z,14.68
2023-02-25T03:16:02.049Z,14.45
2023-02-25T03:26:21.331Z,13.43
2023-02-25T03:31:29.591Z,14.68
2023-02-25T03:36:39.136Z,15.25
2023-02-25T03:41:46.741Z,16.30
2023-02-25T03:46:51.271Z,11.93
2023-02-25T03:51:58.973Z,11.80
2023-02-25T03:57:03.611Z,13.57
2023-02-25T04:02:07.160Z,15.90
2023-02-25T04:07:11.729Z,12.98
2023-02-25T04:12:15.737Z,12.83
2023-02-25T04:17:19.474Z,12.70
2023-02-25T04:22:24.179Z,11.93
2023-02-25T04:27:27.596Z,15.80
2023-02-25T04:32:30.799Z,18.13
2023-02-25T04:37:35.427Z,13.50
2023-02-25T04:42:38.572Z,12.40
2023-02-25T04:47:41.964Z,16.55
2023-02-25T04:52:46.514Z,16.10
2023-02-25T04:57:49.645Z,16.63
2023-02-25T05:02:53.168Z,14.68
2023-02-25T05:07:57.695Z,13.57
2023-02-25T05:13:00.841Z,16.03
2023-02-25T05:18:04.050Z,14.70
2023-02-25T05:23:08.639Z,14.15
2023-02-25T05:28:13.019Z,12.90
2023-02-25T05:33:17.775Z,11.63
2023-02-25T05:38:22.285Z,14.00
2023-02-25T05:43:25.432Z,13.87
2023-02-25T05:48:29.098Z,13.60
2023-02-25T05:53:33.835Z,13.13
2023-02-25T05:58:37.180Z,15.37
2023-02-25T06:03:40.400Z,13.90
2023-02-25T06:08:45.566Z,13.93
2023-02-25T06:13:49.837Z,13.93
2023-02-25T06:18:53.432Z,11.43
2023-02-25T06:23:58.004Z,12.00
2023-02-25T06:29:01.147Z,13.50
2023-02-25T06:34:04.606Z,13.27
2023-02-25T06:39:09.873Z,12.77
2023-02-25T06:44:14.870Z,13.80
2023-02-25T06:49:19.214Z,15.75
2023-02-25T06:54:24.454Z,11.70
2023-02-25T06:59:27.876Z,12.10
2023-02-25T07:04:31.049Z,13.70
2023-02-25T07:09:35.663Z,13.32
2023-02-25T07:14:38.841Z,13.93
2023-02-25T07:19:41.976Z,12.63
2023-02-25T07:24:46.801Z,12.40
2023-02-25T07:29:49.964Z,14.98
2023-02-25T07:34:53.088Z,13.15
2023-02-25T07:39:59.864Z,13.20
2023-02-25T07:45:03.000Z,13.85
2023-02-25T07:50:06.893Z,14.68
2023-02-25T07:55:12.575Z,14.10
2023-02-25T08:00:16.318Z,12.70
2023-02-25T08:05:21.969Z,16.23
2023-02-25T08:10:26.601Z,11.52
2023-02-25T08:15:29.804Z,13.23
2023-02-25T08:20:32.935Z,12.20
2023-02-25T08:25:37.485Z,12.40
2023-02-25T08:30:40.694Z,13.63
2023-02-25T08:35:43.985Z,14.40
2023-02-25T08:40:48.623Z,11.15
2023-02-25T08:45:51.852Z,13.23
2023-02-25T08:50:55.762Z,13.75
2023-02-25T08:56:03.566Z,15.07
2023-02-25T09:01:13.115Z,12.88
2023-02-25T09:06:16.656Z,14.35
2023-02-25T09:11:21.995Z,14.70
2023-02-25T09:16:25.455Z,15.60
2023-02-25T09:21:28.588Z,17.30
2023-02-25T09:26:33.160Z,14.48
2023-02-25T09:31:37.810Z,17.93
2023-02-25T09:36:41.104Z,14.30
2023-02-25T09:41:53.405Z,13.95
2023-02-25T09:47:03.687Z,12.50
2023-02-25T09:52:14.307Z,13.90
2023-02-25T09:57:23.559Z,13.27
2023-02-25T10:02:37.582Z,15.30
2023-02-25T10:07:51.239Z,17.60
2023-02-25T10:13:00.695Z,15.30
2023-02-25T10:18:27.295Z,11.85
2023-02-25T10:23:44.988Z,14.93
2023-02-25T10:28:55.178Z,25.15
2023-02-25T10:33:59.796Z,30.40
2023-02-25T10:39:03.076Z,14.83
2023-02-25T10:44:07.647Z,20.60
2023-02-25T10:49:17.983Z,16.77
2023-02-25T10:54:24.721Z,20.05
2023-02-25T10:59:33.486Z,19.73
2023-02-25T11:04:39.580Z,26.10
2023-02-25T11:09:42.729Z,28.08
2023-02-25T11:14:47.394Z,28.58
2023-02-25T11:19:59.485Z,24.23
2023-02-25T11:25:06.135Z,22.05
2023-02-25T11:30:20.836Z,22.00
2023-02-25T11:35:30.763Z,23.10
2023-02-25T11:40:41.984Z,20.08
2023-02-25T11:46:02.824Z,25.63
2023-02-25T11:51:14.556Z,20.00
2023-02-25T11:56:25.801Z,26.25
2023-02-25T12:01:43.847Z,29.75
2023-02-25T12:07:11.481Z,37.33
2023-02-25T12:12:46.876Z,28.35
2023-02-25T12:18:21.297Z,23.92
2023-02-25T12:23:56.996Z,19.33
2023-02-25T12:29:14.364Z,16.65
2023-02-25T12:34:36.269Z,18.08
2023-02-25T12:39:50.842Z,24.25
2023-02-25T12:45:25.291Z,26.63
2023-02-25T12:50:41.420Z,23.55
2023-02-25T12:56:01.750Z,20.50
2023-02-25T13:01:51.803Z,16.08
2023-02-25T13:07:29.600Z,16.85
2023-02-25T13:12:48.769Z,21.35
2023-02-25T13:18:24.117Z,19.83
2023-02-25T13:24:00.316Z,20.10
2023-02-25T14:20:15.728Z,22.63
2023-02-25T14:25:29.358Z,23.25
2023-02-25T14:30:42.602Z,22.00
2023-02-25T20:22:32.565Z,51.15
2023-02-25T22:00:04.494Z,43.95
2023-02-25T22:05:16.033Z,46.42
2023-02-25T22:10:26.923Z,49.45
2023-02-25T22:15:38.307Z,51.60
2023-02-25T22:20:48.260Z,44.53
2023-02-25T22:26:00.690Z,33.95
2023-02-25T22:31:17.092Z,42.92
2023-02-25T22:36:23.556Z,51.65
2023-02-25T22:41:30.337Z,48.97
